createdAt,value
2023-03-17T00:01:44.726Z,3.17
2023-03-17T00:04:13.414Z,3.57
2023-03-17T00:06:42.598Z,3.63
2023-03-17T00:09:14.658Z,3.37
2023-03-17T00:11:42.565Z,3.63
2023-03-17T00:14:10.719Z,3.50
2023-03-17T00:16:40.544Z,4.23
2023-03-17T00:19:08.376Z,3.60
2023-03-17T00:21:36.646Z,4.20
2023-03-17T00:24:07.232Z,3.80
2023-03-17T00:26:34.946Z,4.13
2023-03-17T00:29:02.669Z,3.80
2023-03-17T00:31:31.359Z,3.93
2023-03-17T00:33:59.136Z,3.90
2023-03-17T00:36:29.450Z,4.27
2023-03-17T00:38:57.430Z,4.00
2023-03-17T00:41:27.166Z,3.90
2023-03-17T00:43:55.385Z,3.93
2023-03-17T00:46:26.708Z,3.83
2023-03-17T00:48:54.507Z,3.97
2023-03-17T00:51:23.326Z,4.30
2023-03-17T00:53:51.202Z,4.43
2023-03-17T00:56:20.991Z,3.83
2023-03-17T00:58:50.240Z,3.97
2023-03-17T01:01:18.697Z,4.33
2023-03-17T01:03:46.803Z,4.33
2023-03-17T01:06:15.955Z,4.33
2023-03-17T01:08:44.763Z,4.50
2023-03-17T01:11:16.349Z,4.23
2023-03-17T01:13:44.048Z,4.30
2023-03-17T01:16:13.534Z,4.27
2023-03-17T01:18:41.356Z,3.93
2023-03-17T01:21:09.844Z,4.53
2023-03-17T01:23:37.969Z,4.43
2023-03-17T01:26:06.546Z,4.30
2023-03-17T01:28:35.142Z,4.07
2023-03-17T01:31:03.428Z,4.63
2023-03-17T01:33:33.604Z,5.00
2023-03-17T01:36:01.518Z,5.00
2023-03-17T01:38:29.708Z,4.67
2023-03-17T01:40:57.437Z,5.10
2023-03-17T01:43:27.632Z,4.33
2023-03-17T01:46:27.502Z,5.00
2023-03-17T01:49:09.430Z,4.90
2023-03-17T01:51:43.080Z,5.07
2023-03-17T01:54:14.185Z,4.87
2023-03-17T01:56:44.763Z,5.60
2023-03-17T01:59:24.701Z,5.57
2023-03-17T02:01:58.372Z,4.90
2023-03-17T02:04:27.713Z,4.77
2023-03-17T02:06:58.449Z,5.30
2023-03-17T02:09:28.601Z,5.37
2023-03-17T02:11:57.561Z,5.17
2023-03-17T02:14:25.569Z,5.43
2023-03-17T02:16:54.555Z,4.87
2023-03-17T02:19:22.330Z,5.23
2023-03-17T02:21:53.745Z,5.27
2023-03-17T02:24:27.495Z,5.50
2023-03-17T02:26:59.424Z,5.20
2023-03-17T02:29:27.695Z,5.43
2023-03-17T02:31:55.614Z,5.67
2023-03-17T02:34:23.368Z,5.10
2023-03-17T02:36:52.525Z,5.43
2023-03-17T02:39:20.766Z,5.40
2023-03-17T02:41:48.609Z,5.50
2023-03-17T02:44:16.517Z,5.00
2023-03-17T02:46:44.356Z,5.53
2023-03-17T02:49:13.009Z,5.43
2023-03-17T02:51:40.885Z,5.43
2023-03-17T02:54:10.237Z,4.97
2023-03-17T02:56:38.317Z,4.80
2023-03-17T02:59:07.226Z,5.07
2023-03-17T03:01:35.104Z,4.93
2023-03-17T03:04:03.521Z,5.17
2023-03-17T03:06:31.670Z,5.37
2023-03-17T03:08:59.529Z,5.27
2023-03-17T03:11:29.374Z,4.93
2023-03-17T03:13:57.179Z,5.07
2023-03-17T03:16:24.971Z,4.90
2023-03-17T03:18:52.718Z,4.63
2023-03-17T03:21:20.426Z,5.50
2023-03-17T03:23:48.174Z,5.70
2023-03-17T03:26:16.335Z,5.20
2023-03-17T03:28:45.816Z,5.40
2023-03-17T03:31:14.058Z,5.13
2023-03-17T03:33:42.242Z,4.73
2023-03-17T03:36:11.336Z,5.17
2023-03-17T03:38:39.105Z,4.63
2023-03-17T03:41:07.319Z,4.97
2023-03-17T03:43:35.290Z,5.20
2023-03-17T03:46:04.777Z,4.93
2023-03-17T03:48:32.907Z,4.93
2023-03-17T03:51:02.111Z,4.90
2023-03-17T03:53:30.594Z,5.17
2023-03-17T03:55:58.379Z,5.77
2023-03-17T03:58:26.169Z,4.70
2023-03-17T04:00:53.962Z,4.47
2023-03-17T04:03:23.010Z,4.95
2023-03-17T04:05:50.762Z,4.60
2023-03-17T04:08:18.490Z,4.43
2023-03-17T04:10:46.203Z,4.57
2023-03-17T04:13:14.048Z,4.80
2023-03-17T04:15:42.480Z,4.93
2023-03-17T04:18:10.195Z,4.27
2023-03-17T04:20:39.495Z,4.93
2023-03-17T04:23:07.929Z,4.77
2023-03-17T04:25:35.731Z,4.73
2023-03-17T04:28:03.511Z,4.67
2023-03-17T04:30:31.536Z,4.17
2023-03-17T04:32:59.618Z,4.80
2023-03-17T04:35:27.965Z,4.40
2023-03-17T04:37:57.025Z,4.40
2023-03-17T04:40:24.822Z,4.40
2023-03-17T04:42:52.578Z,4.07
2023-03-17T04:45:20.959Z,4.60
2023-03-17T04:47:48.734Z,4.50
2023-03-17T04:50:17.895Z,4.77
2023-03-17T04:52:45.686Z,4.17
2023-03-17T04:55:14.710Z,4.40
2023-03-17T04:57:42.462Z,4.50
2023-03-17T05:00:12.771Z,4.50
2023-03-17T05:02:41.194Z,3.90
2023-03-17T05:05:09.939Z,4.23
2023-03-17T05:07:37.748Z,4.20
2023-03-17T05:10:06.580Z,3.57
2023-03-17T05:12:35.820Z,4.10
2023-03-17T05:15:05.395Z,4.63
2023-03-17T05:17:33.141Z,4.47
2023-03-17T05:20:00.889Z,4.37
2023-03-17T05:22:28.650Z,3.80
2023-03-17T05:24:56.456Z,3.63
2023-03-17T05:27:24.457Z,4.40
2023-03-17T05:29:53.557Z,3.70
2023-03-17T05:32:21.415Z,3.77
2023-03-17T05:34:49.956Z,3.73
2023-03-17T05:37:17.736Z,4.27
2023-03-17T05:39:45.438Z,3.60
2023-03-17T05:42:13.165Z,4.10
2023-03-17T05:44:40.910Z,4.10
2023-03-17T05:47:10.280Z,4.13
2023-03-17T05:49:38.063Z,4.50
2023-03-17T05:52:05.878Z,3.77
2023-03-17T05:54:33.580Z,4.07
2023-03-17T05:57:01.335Z,4.10
2023-03-17T05:59:29.103Z,4.43
2023-03-17T06:01:57.175Z,3.83
2023-03-17T06:04:26.449Z,3.80
2023-03-17T06:06:54.172Z,4.83
2023-03-17T06:09:21.954Z,4.10
2023-03-17T06:11:49.676Z,3.57
2023-03-17T06:14:17.400Z,3.63
2023-03-17T06:16:45.161Z,3.73
2023-03-17T06:19:13.153Z,4.03
2023-03-17T06:21:42.271Z,3.33
2023-03-17T06:24:10.764Z,3.40
2023-03-17T06:26:38.604Z,3.57
2023-03-17T06:29:09.104Z,4.13
2023-03-17T06:31:37.148Z,3.70
2023-03-17T06:34:05.634Z,3.97
2023-03-17T06:36:33.751Z,3.80
2023-03-17T06:39:02.794Z,4.30
2023-03-17T06:41:30.545Z,3.87
2023-03-17T06:43:58.282Z,3.80
2023-03-17T06:46:26.169Z,3.90
2023-03-17T06:48:54.146Z,4.20
2023-03-17T06:51:22.059Z,3.83
2023-03-17T06:53:49.797Z,3.47
2023-03-17T06:56:29.595Z,3.97
2023-03-17T06:59:00.398Z,3.63
2023-03-17T07:01:28.713Z,3.70
2023-03-17T07:03:56.546Z,4.57
2023-03-17T07:06:24.384Z,3.90
2023-03-17T07:08:52.354Z,4.10
2023-03-17T07:11:23.565Z,4.03
2023-03-17T07:13:52.012Z,3.70
2023-03-17T07:16:21.052Z,3.90
2023-03-17T07:18:49.169Z,4.10
2023-03-17T07:21:17.356Z,3.83
2023-03-17T07:23:45.223Z,3.87
2023-03-17T07:26:13.277Z,4.40
2023-03-17T07:28:42.418Z,3.80
2023-03-17T07:31:14.033Z,4.03
2023-03-17T07:33:42.293Z,4.13
2023-03-17T07:36:10.529Z,3.60
2023-03-17T07:38:38.486Z,4.20
2023-03-17T07:41:09.791Z,4.17
2023-03-17T07:43:38.590Z,3.77
2023-03-17T07:46:08.519Z,4.40
2023-03-17T07:48:40.908Z,4.10
2023-03-17T07:51:12.296Z,3.97
2023-03-17T07:53:40.536Z,4.77
2023-03-17T07:56:08.883Z,4.00
2023-03-17T07:58:37.057Z,4.57
2023-03-17T08:01:07.950Z,3.93
2023-03-17T08:03:39.296Z,4.20
2023-03-17T08:06:09.316Z,4.60
2023-03-17T08:08:37.073Z,3.73
2023-03-17T08:11:06.469Z,3.90
2023-03-17T08:13:34.931Z,4.00
2023-03-17T08:16:02.741Z,3.70
2023-03-17T08:18:30.555Z,3.90
2023-03-17T08:21:00.003Z,4.00
2023-03-17T08:23:28.035Z,3.77
2023-03-17T08:25:58.199Z,4.40
2023-03-17T08:28:26.022Z,3.90
2023-03-17T08:30:54.327Z,4.00
2023-03-17T08:33:22.647Z,3.97
2023-03-17T08:35:50.995Z,3.90
2023-03-17T08:38:20.147Z,4.00
2023-03-17T08:40:50.073Z,3.93
2023-03-17T08:43:18.669Z,4.43
2023-03-17T08:45:46.548Z,3.92
2023-03-17T08:48:14.399Z,3.65
2023-03-17T08:50:42.246Z,3.35
2023-03-17T08:53:10.092Z,3.40
2023-03-17T08:55:39.957Z,3.60
2023-03-17T08:58:07.806Z,3.90
2023-03-17T09:00:36.024Z,4.20
2023-03-17T09:03:03.913Z,3.93
2023-03-17T09:05:32.031Z,3.72
2023-03-17T09:08:00.243Z,3.70
2023-03-17T09:10:29.106Z,3.60
2023-03-17T09:13:02.940Z,4.03
2023-03-17T09:15:31.239Z,4.07
2023-03-17T09:17:59.187Z,3.85
2023-03-17T09:20:27.093Z,3.80
2023-03-17T09:22:54.997Z,3.72
2023-03-17T09:25:23.665Z,3.53
2023-03-17T09:27:51.608Z,3.60
2023-03-17T09:30:20.837Z,3.53
2023-03-17T09:32:49.268Z,3.47
2023-03-17T09:35:17.879Z,3.70
2023-03-17T09:37:46.268Z,3.35
2023-03-17T09:40:17.641Z,3.55
2023-03-17T09:43:01.548Z,3.47
2023-03-17T09:45:36.662Z,3.42
2023-03-17T09:48:27.354Z,3.70
2023-03-17T09:50:58.906Z,3.28
2023-03-17T09:53:33.997Z,3.30
2023-03-17T09:56:05.977Z,3.33
2023-03-17T09:58:35.562Z,3.22
2023-03-17T10:01:06.123Z,3.45
2023-03-17T10:03:34.715Z,3.30
2023-03-17T10:06:25.642Z,3.13
2023-03-17T10:08:59.323Z,3.50
2023-03-17T10:11:38.381Z,3.67
2023-03-17T10:14:17.132Z,4.03
2023-03-17T10:16:53.961Z,3.60
2023-03-17T10:19:28.106Z,3.50
2023-03-17T10:22:00.500Z,3.38
2023-03-17T10:24:32.483Z,3.42
2023-03-17T10:27:04.649Z,3.30
2023-03-17T10:29:32.811Z,3.92
2023-03-17T10:32:01.887Z,4.03
2023-03-17T10:34:32.248Z,3.38
2023-03-17T10:37:02.531Z,3.30
2023-03-17T10:39:32.694Z,3.45
2023-03-17T10:42:09.012Z,3.80
2023-03-17T10:44:43.914Z,3.47
2023-03-17T10:47:31.639Z,3.63
2023-03-17T10:50:04.184Z,3.55
2023-03-17T10:52:36.776Z,3.33
2023-03-17T10:55:07.898Z,3.53
2023-03-17T10:57:38.892Z,2.95
2023-03-17T11:00:15.357Z,3.33
2023-03-17T11:02:52.470Z,3.20
2023-03-17T11:05:22.849Z,3.30
2023-03-17T11:07:51.601Z,3.03
2023-03-17T11:10:22.501Z,3.22
2023-03-17T11:12:58.717Z,2.85
2023-03-17T11:15:32.456Z,3.00
2023-03-17T11:18:03.355Z,3.60
2023-03-17T11:20:42.163Z,3.20
2023-03-17T11:23:22.329Z,3.50
2023-03-17T11:25:57.484Z,2.95
2023-03-17T11:28:29.328Z,2.78
2023-03-17T11:31:07.739Z,2.70
2023-03-17T11:33:43.794Z,3.45
2023-03-17T11:36:25.813Z,2.97
2023-03-17T11:39:00.803Z,3.30
2023-03-17T11:41:42.380Z,2.97
2023-03-17T11:44:29.922Z,3.20
2023-03-17T11:47:07.421Z,3.00
2023-03-17T11:49:39.007Z,2.75
2023-03-17T11:52:16.558Z,3.00
2023-03-17T11:54:54.165Z,2.80
2023-03-17T11:57:28.165Z,2.75
2023-03-17T11:59:59.787Z,3.03
2023-03-17T12:02:33.036Z,3.22
2023-03-17T12:05:06.662Z,3.47
2023-03-17T12:07:37.585Z,3.00
2023-03-17T12:10:17.353Z,2.90
2023-03-17T12:12:48.792Z,2.58
2023-03-17T12:15:22.517Z,2.83
2023-03-17T12:17:53.170Z,3.08
2023-03-17T12:20:28.459Z,3.17
2023-03-17T12:23:02.345Z,3.08
2023-03-17T12:25:33.708Z,3.42
2023-03-17T12:28:05.264Z,2.97
2023-03-17T12:30:41.132Z,3.20
2023-03-17T12:33:18.116Z,3.20
2023-03-17T12:35:47.244Z,3.10
2023-03-17T12:38:20.301Z,3.15
2023-03-17T12:41:07.822Z,3.00
2023-03-17T12:43:47.778Z,2.85
2023-03-17T12:46:30.676Z,2.97
2023-03-17T12:49:38.687Z,2.90
2023-03-17T12:52:20.662Z,3.50
2023-03-17T12:54:51.597Z,2.53
2023-03-17T12:57:22.118Z,2.65
2023-03-17T12:59:58.420Z,2.67
2023-03-17T13:02:38.241Z,2.60
2023-03-17T13:05:10.095Z,2.47
2023-03-17T13:07:47.625Z,2.80
2023-03-17T13:10:22.559Z,2.42
2023-03-17T13:13:06.300Z,2.60
2023-03-17T13:15:53.740Z,2.60
2023-03-17T13:18:51.518Z,2.70
2023-03-17T13:21:23.561Z,2.55
2023-03-17T13:23:58.318Z,2.58
2023-03-17T13:27:07.654Z,2.45
2023-03-17T13:29:47.241Z,2.45
2023-03-17T13:32:38.389Z,2.25
2023-03-17T13:35:19.954Z,2.40
2023-03-17T13:38:11.292Z,2.15
2023-03-17T13:40:48.703Z,2.15
2023-03-17T13:43:33.662Z,2.20
2023-03-17T13:46:22.371Z,2.50
2023-03-17T13:48:50.393Z,2.05
2023-03-17T13:51:22.424Z,2.35
2023-03-17T13:53:55.488Z,2.10
2023-03-17T13:56:27.899Z,2.20
2023-03-17T13:59:14.917Z,2.30
2023-03-17T14:01:48.276Z,2.53
2023-03-17T14:04:26.811Z,2.50
2023-03-17T14:06:57.453Z,2.35
2023-03-17T14:09:35.186Z,2.00
2023-03-17T14:12:11.940Z,2.25
2023-03-17T14:14:47.869Z,2.15
2023-03-17T14:17:20.101Z,2.53
2023-03-17T14:20:02.255Z,2.70
2023-03-17T14:22:29.973Z,2.55
2023-03-17T14:25:03.782Z,2.30
2023-03-17T14:27:34.946Z,2.13
2023-03-17T14:30:19.605Z,2.33
2023-03-17T14:32:51.587Z,2.40
2023-03-17T14:35:21.596Z,2.58
2023-03-17T14:37:49.329Z,2.10
2023-03-17T14:40:23.420Z,2.22
2023-03-17T14:42:52.715Z,2.25
2023-03-17T14:45:23.458Z,2.30
2023-03-17T14:47:52.698Z,2.80
2023-03-17T14:50:25.392Z,2.35
2023-03-17T14:52:53.561Z,2.28
2023-03-17T14:55:21.512Z,2.45
2023-03-17T14:57:53.090Z,2.50
2023-03-17T15:00:34.256Z,2.28
2023-03-17T15:03:05.399Z,2.13
2023-03-17T15:05:39.993Z,2.20
2023-03-17T15:08:40.930Z,2.40
2023-03-17T15:11:15.384Z,2.00
2023-03-17T15:13:44.475Z,2.40
2023-03-17T15:16:23.175Z,2.40
2023-03-17T15:18:58.260Z,2.22
2023-03-17T15:21:33.784Z,2.33
2023-03-17T15:24:06.422Z,2.22
2023-03-17T15:26:34.156Z,2.15
2023-03-17T15:29:03.226Z,2.53
2023-03-17T15:31:31.176Z,2.25
2023-03-17T15:33:59.765Z,2.40
2023-03-17T15:36:32.830Z,2.10
2023-03-17T15:39:01.690Z,2.42
2023-03-17T15:41:29.563Z,2.47
2023-03-17T15:43:57.293Z,2.25
2023-03-17T15:46:30.996Z,2.20
2023-03-17T15:48:59.327Z,2.17
2023-03-17T15:51:27.790Z,2.20
2023-03-17T15:53:55.636Z,2.50
2023-03-17T15:56:23.394Z,2.17
2023-03-17T15:58:52.423Z,2.50
2023-03-17T16:01:21.238Z,2.33
2023-03-17T16:03:50.480Z,2.20
2023-03-17T16:06:21.341Z,2.40
2023-03-17T16:08:50.432Z,2.22
2023-03-17T16:11:20.401Z,2.35
2023-03-17T16:13:48.606Z,2.15
2023-03-17T16:16:25.728Z,2.17
2023-03-17T16:18:54.841Z,2.38
2023-03-17T16:21:22.904Z,2.20
2023-03-17T16:23:50.937Z,2.00
2023-03-17T16:26:18.854Z,2.10
2023-03-17T16:28:47.669Z,2.42
2023-03-17T16:31:20.364Z,2.38
2023-03-17T16:33:48.670Z,2.38
2023-03-17T16:36:19.577Z,2.65
2023-03-17T16:38:48.193Z,2.80
2023-03-17T16:41:21.354Z,2.30
2023-03-17T16:43:55.422Z,2.67
2023-03-17T16:46:23.761Z,2.40
2023-03-17T16:48:51.828Z,2.60
2023-03-17T16:51:21.007Z,2.40
2023-03-17T16:53:49.088Z,2.78
2023-03-17T16:56:19.271Z,2.60
2023-03-17T16:58:47.551Z,3.03
2023-03-17T17:01:19.263Z,3.03
2023-03-17T17:03:47.738Z,2.67
2023-03-17T17:06:16.284Z,2.72
2023-03-17T17:08:47.041Z,3.10
2023-03-17T17:11:15.975Z,2.80
2023-03-17T17:13:44.974Z,3.30
2023-03-17T17:16:20.091Z,3.03
2023-03-17T17:18:48.329Z,2.88
2023-03-17T17:21:16.664Z,3.00
2023-03-17T17:23:45.902Z,3.53
2023-03-17T17:26:13.726Z,3.22
2023-03-17T17:28:41.746Z,3.10
2023-03-17T17:31:10.886Z,3.08
2023-03-17T17:33:38.775Z,2.80
2023-03-17T17:36:13.736Z,3.40
2023-03-17T17:38:41.766Z,3.25
2023-03-17T17:41:13.293Z,3.28
2023-03-17T17:43:41.725Z,3.22
2023-03-17T17:46:17.613Z,3.22
2023-03-17T17:48:45.815Z,3.88
2023-03-17T17:51:13.605Z,3.40
2023-03-17T17:53:41.895Z,3.67
2023-03-17T17:56:15.349Z,3.25
2023-03-17T17:58:43.672Z,3.25
2023-03-17T18:01:13.534Z,2.92
2023-03-17T18:03:42.861Z,3.72
2023-03-17T18:06:11.668Z,3.10
2023-03-17T18:08:39.799Z,3.20
2023-03-17T18:11:07.735Z,3.33
2023-03-17T18:13:39.006Z,3.10
2023-03-17T18:16:09.894Z,3.28
2023-03-17T18:18:40.614Z,3.30
2023-03-17T18:21:08.438Z,3.53
2023-03-17T18:23:37.266Z,3.88
2023-03-17T18:26:06.156Z,3.70
2023-03-17T18:28:36.004Z,3.58
2023-03-17T18:31:10.467Z,3.40
2023-03-17T18:33:39.776Z,3.53
2023-03-17T18:36:08.840Z,4.50
2023-03-17T18:38:37.360Z,4.65
2023-03-17T18:41:07.560Z,4.47
2023-03-17T18:43:36.659Z,4.25
2023-03-17T18:46:04.718Z,3.67
2023-03-17T18:48:32.490Z,3.63
2023-03-17T18:51:00.260Z,3.72
2023-03-17T18:53:29.993Z,3.75
2023-03-17T18:55:59.351Z,3.78
2023-03-17T18:58:27.702Z,3.53
2023-03-17T19:01:01.499Z,4.20
2023-03-17T19:03:32.185Z,3.60
2023-03-17T19:06:09.807Z,4.15
2023-03-17T19:08:37.960Z,4.40
2023-03-17T19:11:07.515Z,4.28
2023-03-17T19:13:35.781Z,4.45
2023-03-17T19:16:07.496Z,4.40
2023-03-17T19:18:36.707Z,4.22
2023-03-17T19:21:05.477Z,4.55
2023-03-17T19:23:33.828Z,4.10
2023-03-17T19:26:01.695Z,4.80
2023-03-17T19:28:29.688Z,4.40
2023-03-17T19:30:57.472Z,4.70
2023-03-17T19:33:26.635Z,4.97
2023-03-17T19:35:57.006Z,5.23
2023-03-17T19:38:25.592Z,5.43
2023-03-17T19:40:53.587Z,5.57
2023-03-17T19:43:38.967Z,4.90
2023-03-17T19:46:07.802Z,6.03
2023-03-17T19:48:37.538Z,6.90
2023-03-17T19:51:06.304Z,6.00
2023-03-17T19:53:34.221Z,5.70
2023-03-17T19:56:02.213Z,5.60
2023-03-17T19:58:30.106Z,5.73
2023-03-17T20:00:57.989Z,5.87
2023-03-17T20:03:26.414Z,5.63
2023-03-17T20:05:55.530Z,6.10
2023-03-17T20:08:24.634Z,6.10
2023-03-17T20:10:53.919Z,5.70
2023-03-17T20:13:22.568Z,6.07
2023-03-17T20:15:51.535Z,6.30
2023-03-17T20:18:19.816Z,6.00
2023-03-17T20:20:52.239Z,6.10
2023-03-17T20:23:21.735Z,6.67
2023-03-17T20:25:50.371Z,6.90
2023-03-17T20:28:18.966Z,6.87
2023-03-17T20:30:47.183Z,7.03
2023-03-17T20:33:15.626Z,6.40
2023-03-17T20:35:46.057Z,7.20
2023-03-17T20:38:14.757Z,7.22
2023-03-17T20:40:44.007Z,7.50
2023-03-17T20:43:11.886Z,6.97
2023-03-17T20:45:39.934Z,7.57
2023-03-17T20:48:10.613Z,7.57
2023-03-17T20:50:38.884Z,7.17
2023-03-17T20:53:07.380Z,7.00
2023-03-17T20:55:36.426Z,6.53
2023-03-17T20:58:05.746Z,7.20
2023-03-17T21:00:33.959Z,7.30
2023-03-17T21:03:03.858Z,7.07
2023-03-17T21:05:32.651Z,6.70
2023-03-17T21:08:00.414Z,6.67
2023-03-17T21:10:28.290Z,7.00
2023-03-17T21:12:56.068Z,6.97
2023-03-17T21:15:25.576Z,6.40
2023-03-17T21:17:53.651Z,7.10
2023-03-17T21:20:22.186Z,6.87
2023-03-17T21:22:50.060Z,8.10
2023-03-17T21:25:17.886Z,7.73
2023-03-17T21:27:46.098Z,7.60
2023-03-17T21:30:15.795Z,7.33
2023-03-17T21:32:44.974Z,6.67
2023-03-17T21:35:12.878Z,7.57
2023-03-17T21:37:40.710Z,7.30
2023-03-17T21:40:10.624Z,7.20
2023-03-17T21:42:38.407Z,6.80
2023-03-17T21:45:07.074Z,6.83
2023-03-17T21:47:36.314Z,6.73
2023-03-17T21:50:05.979Z,6.83
2023-03-17T21:52:33.803Z,6.53
2023-03-17T21:55:01.525Z,7.13
2023-03-17T21:57:29.698Z,6.83
2023-03-17T21:59:57.491Z,7.33
2023-03-17T22:02:25.335Z,7.20
2023-03-17T22:04:53.221Z,7.30
2023-03-17T22:07:23.288Z,6.87
2023-03-17T22:09:53.910Z,7.37
2023-03-17T22:12:21.949Z,6.57
2023-03-17T22:14:49.787Z,6.83
2023-03-17T22:17:17.746Z,7.27
2023-03-17T22:19:45.532Z,6.83
2023-03-17T22:22:13.276Z,6.77
2023-03-17T22:24:42.805Z,6.73
2023-03-17T22:27:10.583Z,7.07
2023-03-17T22:29:38.350Z,7.20
2023-03-17T22:32:06.962Z,7.17
2023-03-17T22:34:34.879Z,6.60
2023-03-17T22:37:02.620Z,7.50
2023-03-17T22:39:30.362Z,6.60
2023-03-17T22:41:59.410Z,6.77
2023-03-17T22:44:27.191Z,6.97
2023-03-17T22:46:54.927Z,6.50
2023-03-17T22:49:23.677Z,6.87
2023-03-17T22:51:51.983Z,6.60
2023-03-17T22:54:19.891Z,6.73
2023-03-17T22:56:48.518Z,6.53
2023-03-17T22:59:17.587Z,7.13
2023-03-17T23:01:45.864Z,6.73
2023-03-17T23:04:14.110Z,5.93
2023-03-17T23:06:42.314Z,6.93
2023-03-17T23:09:10.140Z,6.97
2023-03-17T23:11:38.827Z,6.60
2023-03-17T23:14:06.625Z,6.47
2023-03-17T23:16:35.753Z,5.87
2023-03-17T23:19:03.641Z,6.40
2023-03-17T23:21:34.120Z,6.17
2023-03-17T23:24:03.511Z,6.10
2023-03-17T23:26:32.102Z,5.77
2023-03-17T23:28:59.922Z,5.57
2023-03-17T23:31:27.640Z,5.90
2023-03-17T23:33:56.842Z,5.90
2023-03-17T23:36:24.605Z,5.53
2023-03-17T23:38:53.100Z,6.10
2023-03-17T23:41:21.225Z,6.10
2023-03-17T23:43:49.063Z,6.23
2023-03-17T23:46:17.233Z,6.60
2023-03-17T23:48:45.210Z,6.23
2023-03-17T23:51:14.921Z,6.13
2023-03-17T23:53:43.025Z,5.77
2023-03-17T23:56:13.061Z,6.13
2023-03-17T23:58:42.450Z,5.77
